Weather observations for the past three days for
Puntilla
Metric (Imperial)
Date Time (akdt) Wind (kph) Vis. (km) Weather Sky Cond. Temperature (ºC) Relative Humidity Wind Chill (°C) Heat Index (°C) Pressure Precipitation (cm)
Air Dwpt 6 hour altimeter (cm) sea level (mb) 1 hr 3 hr 6 hr
Max. Min.
08 12:47 S 9 0.80 Snow VV005 1 1 100% -2 75.34 0.0
08 10:45 S 7 0.80 Snow VV005 1 -1 87% -1 75.39 0.0
08 08:51 S 6 0.80 Snow VV005 -1 -1 100% 75.44 0.0
07 18:45 S 17 40.23 Overcast OVC060 3 -2 70% -1 75.84 0.0
07 16:47 S 11 40.23 Mostly Cloudy BKN060 4 -2 65% 2 75.87 0.0
07 14:45 S 19 40.23 Mostly Cloudy BKN060 5 -2 61% 2 75.92 0.0
07 12:45 S 11 40.23 Overcast OVC060 3 -2 70% 0 75.95 0.0
07 10:45 S 11 40.23 Mostly Cloudy FEW030 BKN060 4 -2 65% 2 75.95 0.0
07 08:52 Calm 40.23 Mostly Cloudy BKN060 1 0 93% 76 0.0
07 06:51 N 6 16.09 Mostly Cloudy BKN060 -1 -1 100% 76 0.0
06 18:45 N 13 40.23 Mostly Cloudy BKN060 6 -2 57% 4 75.87 0.0
06 16:45 N 11 40.23 Mostly Cloudy BKN060 7 -3 49% 5 75.84 0.0
06 14:45 N 17 40.23 Mostly Cloudy BKN060 6 -5 46% 3 75.82 0.0
06 12:45 N 19 40.23 Mostly Cloudy BKN060 5 -4 53% 2 75.77 0.0
06 10:45 N 15 40.23 Mostly Cloudy BKN060 4 -6 48% 1 75.72 0.0
06 08:50 N 11 40.23 Mostly Cloudy BKN060 2 -1 81% -1 75.67 0.0
06 06:50 N 6 16.09 Mostly Cloudy BKN025 1 -1 87% 75.62 0.0
05 18:45 S 6 40.23 Mostly Cloudy BKN030 6 3 81% 75.29 0.0
05 16:45 S 7 40.23 Mostly Cloudy BKN030 7 2 71% 6 75.26 0.0
05 14:45 S 9 24.14 Overcast OVC040 6 2 76% 4 75.23 0.0
Date Time (akdt) Wind (kph) Vis. (km) Weather Sky Cond. Air Dwpt Max. Min. Relative Humidity Wind Chill (°C) Heat Index (°C) altimeter (cm) sea level (mb) 1 hr 3 hr 6 hr
6 hour
Temperature (ºC) Pressure Precipitation (cm)